sensor_id;sensor_type;location;lat;lon;timestamp;P1;durP1;ratioP1;P2;durP2;ratioP2
76591;SDS011;65481;47.600;19.682;2023-08-21T00:04:40;10.90;;;7.53;;
76591;SDS011;65481;47.600;19.682;2023-08-21T00:09:40;9.95;;;7.05;;
76591;SDS011;65481;47.600;19.682;2023-08-21T00:14:41;11.02;;;7.50;;
76591;SDS011;65481;47.600;19.682;2023-08-21T00:19:41;12.05;;;8.18;;
76591;SDS011;65481;47.600;19.682;2023-08-21T00:24:42;12.48;;;8.43;;
76591;SDS011;65481;47.600;19.682;2023-08-21T00:29:42;11.65;;;7.93;;
76591;SDS011;65481;47.600;19.682;2023-08-21T00:34:43;11.05;;;8.05;;
76591;SDS011;65481;47.600;19.682;2023-08-21T00:39:44;12.38;;;8.90;;
76591;SDS011;65481;47.600;19.682;2023-08-21T00:44:44;11.10;;;7.90;;
76591;SDS011;65481;47.600;19.682;2023-08-21T00:49:45;10.65;;;8.00;;
76591;SDS011;65481;47.600;19.682;2023-08-21T00:54:46;11.82;;;8.10;;
76591;SDS011;65481;47.600;19.682;2023-08-21T00:59:46;12.25;;;8.48;;
76591;SDS011;65481;47.600;19.682;2023-08-21T01:04:47;14.30;;;8.02;;
76591;SDS011;65481;47.600;19.682;2023-08-21T01:15:10;11.82;;;8.70;;
76591;SDS011;65481;47.600;19.682;2023-08-21T01:20:10;13.30;;;8.95;;
76591;SDS011;65481;47.600;19.682;2023-08-21T01:25:12;11.68;;;8.13;;
76591;SDS011;65481;47.600;19.682;2023-08-21T01:30:13;12.75;;;8.48;;
76591;SDS011;65481;47.600;19.682;2023-08-21T01:35:14;11.20;;;8.02;;
76591;SDS011;65481;47.600;19.682;2023-08-21T01:40:24;13.70;;;8.25;;
76591;SDS011;65481;47.600;19.682;2023-08-21T01:45:25;12.05;;;8.00;;
76591;SDS011;65481;47.600;19.682;2023-08-21T01:50:27;11.85;;;7.75;;
76591;SDS011;65481;47.600;19.682;2023-08-21T01:55:27;11.57;;;8.13;;
76591;SDS011;65481;47.600;19.682;2023-08-21T02:00:28;10.18;;;7.32;;
76591;SDS011;65481;47.600;19.682;2023-08-21T02:05:28;10.32;;;7.55;;
76591;SDS011;65481;47.600;19.682;2023-08-21T02:10:29;9.38;;;6.85;;
76591;SDS011;65481;47.600;19.682;2023-08-21T02:15:29;9.77;;;7.10;;
76591;SDS011;65481;47.600;19.682;2023-08-21T02:20:30;11.20;;;7.88;;
76591;SDS011;65481;47.600;19.682;2023-08-21T02:25:31;11.15;;;7.50;;
76591;SDS011;65481;47.600;19.682;2023-08-21T02:30:32;11.02;;;7.88;;
76591;SDS011;65481;47.600;19.682;2023-08-21T02:35:32;10.98;;;7.60;;
76591;SDS011;65481;47.600;19.682;2023-08-21T02:40:33;11.63;;;8.38;;
76591;SDS011;65481;47.600;19.682;2023-08-21T02:45:34;12.65;;;7.88;;
76591;SDS011;65481;47.600;19.682;2023-08-21T02:50:34;14.65;;;8.85;;
76591;SDS011;65481;47.600;19.682;2023-08-21T02:55:35;12.63;;;8.07;;
76591;SDS011;65481;47.600;19.682;2023-08-21T03:00:35;12.05;;;8.65;;
76591;SDS011;65481;47.600;19.682;2023-08-21T03:05:56;12.90;;;8.30;;
76591;SDS011;65481;47.600;19.682;2023-08-21T03:10:57;13.02;;;8.05;;
76591;SDS011;65481;47.600;19.682;2023-08-21T03:15:57;11.20;;;8.10;;
76591;SDS011;65481;47.600;19.682;2023-08-21T03:20:58;9.48;;;7.28;;
76591;SDS011;65481;47.600;19.682;2023-08-21T03:25:58;13.65;;;7.75;;
76591;SDS011;65481;47.600;19.682;2023-08-21T03:30:59;12.68;;;8.20;;
76591;SDS011;65481;47.600;19.682;2023-08-21T03:36:00;10.02;;;7.65;;
76591;SDS011;65481;47.600;19.682;2023-08-21T03:41:01;12.80;;;7.72;;
76591;SDS011;65481;47.600;19.682;2023-08-21T03:46:02;10.43;;;7.90;;
76591;SDS011;65481;47.600;19.682;2023-08-21T03:51:02;11.57;;;7.43;;
76591;SDS011;65481;47.600;19.682;2023-08-21T03:56:03;10.30;;;6.88;;
76591;SDS011;65481;47.600;19.682;2023-08-21T04:01:03;11.02;;;7.63;;
76591;SDS011;65481;47.600;19.682;2023-08-21T04:06:04;11.35;;;7.25;;
76591;SDS011;65481;47.600;19.682;2023-08-21T04:11:06;11.32;;;7.50;;
76591;SDS011;65481;47.600;19.682;2023-08-21T04:16:06;10.18;;;7.40;;
76591;SDS011;65481;47.600;19.682;2023-08-21T04:21:08;9.82;;;7.07;;
76591;SDS011;65481;47.600;19.682;2023-08-21T04:26:09;10.35;;;7.28;;
76591;SDS011;65481;47.600;19.682;2023-08-21T04:31:10;12.50;;;7.82;;
76591;SDS011;65481;47.600;19.682;2023-08-21T04:36:14;12.68;;;7.93;;
76591;SDS011;65481;47.600;19.682;2023-08-21T04:41:16;11.53;;;7.53;;
76591;SDS011;65481;47.600;19.682;2023-08-21T04:46:16;11.70;;;7.90;;
76591;SDS011;65481;47.600;19.682;2023-08-21T04:51:17;10.30;;;7.95;;
76591;SDS011;65481;47.600;19.682;2023-08-21T04:56:17;13.30;;;8.80;;
76591;SDS011;65481;47.600;19.682;2023-08-21T05:01:18;11.82;;;8.25;;
76591;SDS011;65481;47.600;19.682;2023-08-21T05:06:18;12.77;;;8.63;;
76591;SDS011;65481;47.600;19.682;2023-08-21T05:11:19;12.50;;;8.43;;
76591;SDS011;65481;47.600;19.682;2023-08-21T05:16:19;11.27;;;8.30;;
76591;SDS011;65481;47.600;19.682;2023-08-21T05:21:19;15.98;;;9.20;;
76591;SDS011;65481;47.600;19.682;2023-08-21T05:26:20;10.07;;;7.68;;
76591;SDS011;65481;47.600;19.682;2023-08-21T05:31:20;10.02;;;8.15;;
76591;SDS011;65481;47.600;19.682;2023-08-21T05:36:21;10.90;;;8.18;;
76591;SDS011;65481;47.600;19.682;2023-08-21T05:41:21;10.07;;;7.60;;
76591;SDS011;65481;47.600;19.682;2023-08-21T05:46:22;11.80;;;8.38;;
76591;SDS011;65481;47.600;19.682;2023-08-21T05:51:22;11.32;;;8.50;;
76591;SDS011;65481;47.600;19.682;2023-08-21T05:56:23;10.73;;;8.20;;
76591;SDS011;65481;47.600;19.682;2023-08-21T06:01:23;13.35;;;9.55;;
76591;SDS011;65481;47.600;19.682;2023-08-21T06:06:24;12.00;;;9.48;;
76591;SDS011;65481;47.600;19.682;2023-08-21T06:11:24;11.18;;;8.60;;
76591;SDS011;65481;47.600;19.682;2023-08-21T06:16:25;11.80;;;8.98;;
76591;SDS011;65481;47.600;19.682;2023-08-21T06:21:26;11.70;;;8.85;;
76591;SDS011;65481;47.600;19.682;2023-08-21T06:26:26;11.27;;;8.77;;
76591;SDS011;65481;47.600;19.682;2023-08-21T06:31:26;9.87;;;7.87;;
76591;SDS011;65481;47.600;19.682;2023-08-21T06:36:27;8.80;;;7.40;;
76591;SDS011;65481;47.600;19.682;2023-08-21T06:41:27;9.07;;;7.38;;
76591;SDS011;65481;47.600;19.682;2023-08-21T06:46:28;9.65;;;7.63;;
76591;SDS011;65481;47.600;19.682;2023-08-21T06:51:29;9.13;;;7.55;;
76591;SDS011;65481;47.600;19.682;2023-08-21T06:56:29;9.98;;;8.20;;
76591;SDS011;65481;47.600;19.682;2023-08-21T07:01:30;9.88;;;7.95;;
76591;SDS011;65481;47.600;19.682;2023-08-21T07:06:30;11.30;;;8.48;;
76591;SDS011;65481;47.600;19.682;2023-08-21T07:11:31;9.18;;;7.35;;
76591;SDS011;65481;47.600;19.682;2023-08-21T07:16:31;10.33;;;8.37;;
76591;SDS011;65481;47.600;19.682;2023-08-21T07:21:32;9.23;;;8.03;;
76591;SDS011;65481;47.600;19.682;2023-08-21T07:26:35;9.60;;;7.78;;
76591;SDS011;65481;47.600;19.682;2023-08-21T07:31:35;8.23;;;7.32;;
76591;SDS011;65481;47.600;19.682;2023-08-21T07:36:36;9.75;;;7.63;;
76591;SDS011;65481;47.600;19.682;2023-08-21T07:41:36;8.15;;;7.13;;
76591;SDS011;65481;47.600;19.682;2023-08-21T07:46:37;8.15;;;6.90;;
76591;SDS011;65481;47.600;19.682;2023-08-21T07:51:37;8.20;;;6.63;;
76591;SDS011;65481;47.600;19.682;2023-08-21T07:56:38;7.13;;;6.47;;
76591;SDS011;65481;47.600;19.682;2023-08-21T08:01:40;7.60;;;6.25;;
76591;SDS011;65481;47.600;19.682;2023-08-21T08:06:41;7.50;;;6.70;;
76591;SDS011;65481;47.600;19.682;2023-08-21T08:11:43;7.82;;;6.13;;
76591;SDS011;65481;47.600;19.682;2023-08-21T08:16:43;7.20;;;6.50;;
76591;SDS011;65481;47.600;19.682;2023-08-21T08:21:44;7.03;;;6.33;;
76591;SDS011;65481;47.600;19.682;2023-08-21T08:26:44;6.70;;;6.00;;
76591;SDS011;65481;47.600;19.682;2023-08-21T08:31:46;6.40;;;5.80;;
76591;SDS011;65481;47.600;19.682;2023-08-21T08:36:46;6.60;;;5.90;;
76591;SDS011;65481;47.600;19.682;2023-08-21T08:41:48;5.65;;;5.15;;
76591;SDS011;65481;47.600;19.682;2023-08-21T08:46:56;7.70;;;5.82;;
76591;SDS011;65481;47.600;19.682;2023-08-21T08:51:57;7.40;;;6.22;;
76591;SDS011;65481;47.600;19.682;2023-08-21T08:56:59;6.28;;;5.68;;
76591;SDS011;65481;47.600;19.682;2023-08-21T09:01:59;6.23;;;5.63;;
76591;SDS011;65481;47.600;19.682;2023-08-21T09:07:09;6.53;;;5.93;;
76591;SDS011;65481;47.600;19.682;2023-08-21T09:12:12;5.95;;;5.10;;
76591;SDS011;65481;47.600;19.682;2023-08-21T09:17:14;5.30;;;4.80;;
76591;SDS011;65481;47.600;19.682;2023-08-21T09:22:16;5.20;;;4.70;;
76591;SDS011;65481;47.600;19.682;2023-08-21T09:27:20;4.90;;;4.38;;
76591;SDS011;65481;47.600;19.682;2023-08-21T09:32:21;4.77;;;4.37;;
76591;SDS011;65481;47.600;19.682;2023-08-21T09:37:21;5.03;;;4.50;;
76591;SDS011;65481;47.600;19.682;2023-08-21T09:42:29;4.82;;;4.35;;
76591;SDS011;65481;47.600;19.682;2023-08-21T09:47:31;5.15;;;4.65;;
76591;SDS011;65481;47.600;19.682;2023-08-21T09:52:32;5.63;;;5.03;;
76591;SDS011;65481;47.600;19.682;2023-08-21T09:57:34;4.85;;;4.45;;
76591;SDS011;65481;47.600;19.682;2023-08-21T10:02:35;5.93;;;5.32;;
76591;SDS011;65481;47.600;19.682;2023-08-21T10:07:36;5.43;;;4.93;;
76591;SDS011;65481;47.600;19.682;2023-08-21T10:12:37;6.00;;;5.32;;
76591;SDS011;65481;47.600;19.682;2023-08-21T10:17:38;6.22;;;4.70;;
76591;SDS011;65481;47.600;19.682;2023-08-21T10:23:00;5.80;;;5.10;;
76591;SDS011;65481;47.600;19.682;2023-08-21T10:28:02;6.75;;;4.85;;
76591;SDS011;65481;47.600;19.682;2023-08-21T10:33:05;5.30;;;4.80;;
76591;SDS011;65481;47.600;19.682;2023-08-21T10:38:06;5.70;;;5.20;;
76591;SDS011;65481;47.600;19.682;2023-08-21T10:43:36;5.97;;;5.07;;
76591;SDS011;65481;47.600;19.682;2023-08-21T10:48:41;5.38;;;4.63;;
76591;SDS011;65481;47.600;19.682;2023-08-21T10:53:42;5.50;;;5.00;;
76591;SDS011;65481;47.600;19.682;2023-08-21T10:58:43;5.28;;;4.78;;
76591;SDS011;65481;47.600;19.682;2023-08-21T11:03:46;5.07;;;4.57;;
76591;SDS011;65481;47.600;19.682;2023-08-21T11:08:50;5.55;;;4.93;;
76591;SDS011;65481;47.600;19.682;2023-08-21T11:13:54;5.57;;;5.07;;
76591;SDS011;65481;47.600;19.682;2023-08-21T11:18:55;5.05;;;4.65;;
76591;SDS011;65481;47.600;19.682;2023-08-21T11:23:55;5.43;;;4.93;;
76591;SDS011;65481;47.600;19.682;2023-08-21T11:28:56;5.18;;;4.53;;
76591;SDS011;65481;47.600;19.682;2023-08-21T11:33:56;5.72;;;5.22;;
76591;SDS011;65481;47.600;19.682;2023-08-21T11:39:00;4.80;;;4.30;;
76591;SDS011;65481;47.600;19.682;2023-08-21T11:44:03;5.00;;;4.47;;
76591;SDS011;65481;47.600;19.682;2023-08-21T11:49:04;4.90;;;4.40;;
76591;SDS011;65481;47.600;19.682;2023-08-21T11:54:05;4.15;;;3.70;;
76591;SDS011;65481;47.600;19.682;2023-08-21T11:59:06;5.50;;;3.47;;
76591;SDS011;65481;47.600;19.682;2023-08-21T12:04:15;4.55;;;3.78;;
76591;SDS011;65481;47.600;19.682;2023-08-21T12:09:16;4.22;;;3.88;;
76591;SDS011;65481;47.600;19.682;2023-08-21T12:14:19;6.27;;;4.40;;
76591;SDS011;65481;47.600;19.682;2023-08-21T12:19:20;5.97;;;4.73;;
76591;SDS011;65481;47.600;19.682;2023-08-21T12:24:22;4.83;;;4.30;;
76591;SDS011;65481;47.600;19.682;2023-08-21T12:29:22;4.73;;;4.27;;
76591;SDS011;65481;47.600;19.682;2023-08-21T12:34:23;4.53;;;4.05;;
76591;SDS011;65481;47.600;19.682;2023-08-21T12:39:24;4.10;;;3.70;;
76591;SDS011;65481;47.600;19.682;2023-08-21T12:44:24;5.88;;;4.15;;
76591;SDS011;65481;47.600;19.682;2023-08-21T12:49:25;5.60;;;4.53;;
76591;SDS011;65481;47.600;19.682;2023-08-21T12:54:25;4.75;;;4.25;;
76591;SDS011;65481;47.600;19.682;2023-08-21T12:59:27;5.72;;;4.68;;
76591;SDS011;65481;47.600;19.682;2023-08-21T13:04:27;5.03;;;4.63;;
76591;SDS011;65481;47.600;19.682;2023-08-21T13:09:28;5.18;;;4.68;;
76591;SDS011;65481;47.600;19.682;2023-08-21T13:14:29;4.80;;;4.30;;
76591;SDS011;65481;47.600;19.682;2023-08-21T13:19:29;5.00;;;4.50;;
76591;SDS011;65481;47.600;19.682;2023-08-21T13:24:30;5.70;;;4.67;;
76591;SDS011;65481;47.600;19.682;2023-08-21T13:29:30;4.90;;;4.40;;
76591;SDS011;65481;47.600;19.682;2023-08-21T13:34:31;5.27;;;4.70;;
76591;SDS011;65481;47.600;19.682;2023-08-21T13:39:31;4.75;;;4.05;;
76591;SDS011;65481;47.600;19.682;2023-08-21T13:44:32;4.28;;;3.88;;
76591;SDS011;65481;47.600;19.682;2023-08-21T13:49:32;6.50;;;5.17;;
76591;SDS011;65481;47.600;19.682;2023-08-21T13:54:32;4.07;;;3.47;;
76591;SDS011;65481;47.600;19.682;2023-08-21T13:59:33;4.43;;;3.57;;
76591;SDS011;65481;47.600;19.682;2023-08-21T14:04:33;3.97;;;3.60;;
76591;SDS011;65481;47.600;19.682;2023-08-21T14:09:34;3.88;;;3.42;;
76591;SDS011;65481;47.600;19.682;2023-08-21T14:14:36;4.28;;;3.88;;
76591;SDS011;65481;47.600;19.682;2023-08-21T14:19:37;4.22;;;3.63;;
76591;SDS011;65481;47.600;19.682;2023-08-21T14:24:38;4.37;;;3.80;;
76591;SDS011;65481;47.600;19.682;2023-08-21T14:29:38;4.45;;;3.65;;
76591;SDS011;65481;47.600;19.682;2023-08-21T14:34:39;4.07;;;3.67;;
76591;SDS011;65481;47.600;19.682;2023-08-21T14:39:39;5.00;;;4.50;;
76591;SDS011;65481;47.600;19.682;2023-08-21T14:44:39;4.85;;;3.95;;
76591;SDS011;65481;47.600;19.682;2023-08-21T14:49:40;4.10;;;3.70;;
76591;SDS011;65481;47.600;19.682;2023-08-21T14:54:41;4.63;;;3.55;;
76591;SDS011;65481;47.600;19.682;2023-08-21T14:59:41;4.03;;;3.47;;
76591;SDS011;65481;47.600;19.682;2023-08-21T15:04:42;3.90;;;3.50;;
76591;SDS011;65481;47.600;19.682;2023-08-21T15:09:43;6.68;;;3.88;;
76591;SDS011;65481;47.600;19.682;2023-08-21T15:14:44;4.07;;;3.47;;
76591;SDS011;65481;47.600;19.682;2023-08-21T15:19:47;3.75;;;3.40;;
76591;SDS011;65481;47.600;19.682;2023-08-21T15:24:49;3.47;;;3.00;;
76591;SDS011;65481;47.600;19.682;2023-08-21T15:29:49;3.77;;;3.17;;
76591;SDS011;65481;47.600;19.682;2023-08-21T15:34:50;3.75;;;3.13;;
76591;SDS011;65481;47.600;19.682;2023-08-21T15:39:50;3.00;;;2.70;;
76591;SDS011;65481;47.600;19.682;2023-08-21T15:44:51;5.00;;;2.90;;
76591;SDS011;65481;47.600;19.682;2023-08-21T15:49:51;3.90;;;3.10;;
76591;SDS011;65481;47.600;19.682;2023-08-21T15:54:52;3.75;;;3.13;;
76591;SDS011;65481;47.600;19.682;2023-08-21T15:59:52;4.30;;;3.03;;
76591;SDS011;65481;47.600;19.682;2023-08-21T16:04:53;3.78;;;3.03;;
76591;SDS011;65481;47.600;19.682;2023-08-21T16:09:53;4.37;;;3.30;;
76591;SDS011;65481;47.600;19.682;2023-08-21T16:14:54;8.43;;;6.30;;
76591;SDS011;65481;47.600;19.682;2023-08-21T16:19:54;3.70;;;3.30;;
76591;SDS011;65481;47.600;19.682;2023-08-21T16:24:55;3.25;;;2.85;;
76591;SDS011;65481;47.600;19.682;2023-08-21T16:29:56;3.85;;;3.40;;
76591;SDS011;65481;47.600;19.682;2023-08-21T16:34:57;3.78;;;3.17;;
76591;SDS011;65481;47.600;19.682;2023-08-21T16:39:57;4.47;;;3.90;;
76591;SDS011;65481;47.600;19.682;2023-08-21T16:44:58;4.47;;;3.20;;
76591;SDS011;65481;47.600;19.682;2023-08-21T16:49:58;4.47;;;3.53;;
76591;SDS011;65481;47.600;19.682;2023-08-21T16:54:59;4.88;;;3.70;;
76591;SDS011;65481;47.600;19.682;2023-08-21T16:59:59;4.40;;;3.47;;
76591;SDS011;65481;47.600;19.682;2023-08-21T17:05:00;3.88;;;3.45;;
76591;SDS011;65481;47.600;19.682;2023-08-21T17:10:00;4.05;;;3.40;;
76591;SDS011;65481;47.600;19.682;2023-08-21T17:15:02;4.80;;;3.88;;
76591;SDS011;65481;47.600;19.682;2023-08-21T17:20:04;5.28;;;3.95;;
76591;SDS011;65481;47.600;19.682;2023-08-21T17:25:06;5.53;;;3.00;;
76591;SDS011;65481;47.600;19.682;2023-08-21T17:30:08;5.40;;;3.70;;
76591;SDS011;65481;47.600;19.682;2023-08-21T17:35:09;4.85;;;3.80;;
76591;SDS011;65481;47.600;19.682;2023-08-21T17:40:10;5.32;;;3.67;;
76591;SDS011;65481;47.600;19.682;2023-08-21T17:45:11;5.22;;;3.70;;
76591;SDS011;65481;47.600;19.682;2023-08-21T17:50:11;5.72;;;3.60;;
76591;SDS011;65481;47.600;19.682;2023-08-21T17:55:12;5.30;;;3.92;;
76591;SDS011;65481;47.600;19.682;2023-08-21T18:00:13;4.80;;;3.90;;
76591;SDS011;65481;47.600;19.682;2023-08-21T18:05:16;4.78;;;4.07;;
76591;SDS011;65481;47.600;19.682;2023-08-21T18:10:17;48.47;;;15.45;;
76591;SDS011;65481;47.600;19.682;2023-08-21T18:15:18;10.43;;;5.88;;
76591;SDS011;65481;47.600;19.682;2023-08-21T18:20:18;6.38;;;4.47;;
76591;SDS011;65481;47.600;19.682;2023-08-21T18:25:21;6.43;;;4.45;;
76591;SDS011;65481;47.600;19.682;2023-08-21T18:30:22;7.73;;;4.70;;
76591;SDS011;65481;47.600;19.682;2023-08-21T18:35:35;4.95;;;4.00;;
76591;SDS011;65481;47.600;19.682;2023-08-21T18:40:37;5.97;;;4.40;;
76591;SDS011;65481;47.600;19.682;2023-08-21T18:45:39;5.15;;;3.80;;
76591;SDS011;65481;47.600;19.682;2023-08-21T18:50:41;5.55;;;4.40;;
76591;SDS011;65481;47.600;19.682;2023-08-21T18:55:44;4.47;;;3.78;;
76591;SDS011;65481;47.600;19.682;2023-08-21T19:00:48;5.40;;;4.15;;
76591;SDS011;65481;47.600;19.682;2023-08-21T19:05:49;4.55;;;3.97;;
76591;SDS011;65481;47.600;19.682;2023-08-21T19:10:50;6.55;;;4.43;;
76591;SDS011;65481;47.600;19.682;2023-08-21T19:15:51;6.88;;;4.70;;
76591;SDS011;65481;47.600;19.682;2023-08-21T19:20:55;5.70;;;4.28;;
76591;SDS011;65481;47.600;19.682;2023-08-21T19:25:58;8.48;;;4.82;;
76591;SDS011;65481;47.600;19.682;2023-08-21T19:30:59;6.80;;;4.75;;
76591;SDS011;65481;47.600;19.682;2023-08-21T19:36:00;5.53;;;4.35;;
76591;SDS011;65481;47.600;19.682;2023-08-21T19:41:01;6.15;;;4.60;;
76591;SDS011;65481;47.600;19.682;2023-08-21T19:46:01;7.05;;;5.00;;
76591;SDS011;65481;47.600;19.682;2023-08-21T19:51:02;6.78;;;5.30;;
76591;SDS011;65481;47.600;19.682;2023-08-21T19:56:03;5.75;;;4.80;;
76591;SDS011;65481;47.600;19.682;2023-08-21T20:01:05;6.47;;;4.72;;
76591;SDS011;65481;47.600;19.682;2023-08-21T20:06:09;6.30;;;4.80;;
76591;SDS011;65481;47.600;19.682;2023-08-21T20:11:10;6.05;;;4.63;;
76591;SDS011;65481;47.600;19.682;2023-08-21T20:16:11;7.22;;;5.20;;
76591;SDS011;65481;47.600;19.682;2023-08-21T20:21:12;6.63;;;5.00;;
76591;SDS011;65481;47.600;19.682;2023-08-21T20:26:17;6.80;;;5.07;;
76591;SDS011;65481;47.600;19.682;2023-08-21T20:31:19;7.40;;;5.07;;
76591;SDS011;65481;47.600;19.682;2023-08-21T20:36:20;6.82;;;5.05;;
76591;SDS011;65481;47.600;19.682;2023-08-21T20:41:21;5.50;;;4.43;;
76591;SDS011;65481;47.600;19.682;2023-08-21T20:46:21;6.80;;;5.10;;
76591;SDS011;65481;47.600;19.682;2023-08-21T20:51:22;6.15;;;4.53;;
76591;SDS011;65481;47.600;19.682;2023-08-21T20:56:23;8.25;;;5.68;;
76591;SDS011;65481;47.600;19.682;2023-08-21T21:01:24;7.90;;;5.65;;
76591;SDS011;65481;47.600;19.682;2023-08-21T21:06:24;7.70;;;5.78;;
76591;SDS011;65481;47.600;19.682;2023-08-21T21:11:25;7.50;;;6.03;;
76591;SDS011;65481;47.600;19.682;2023-08-21T21:16:26;7.18;;;5.15;;
76591;SDS011;65481;47.600;19.682;2023-08-21T21:21:27;8.50;;;6.18;;
76591;SDS011;65481;47.600;19.682;2023-08-21T21:26:27;8.25;;;6.07;;
76591;SDS011;65481;47.600;19.682;2023-08-21T21:31:27;9.90;;;6.63;;
76591;SDS011;65481;47.600;19.682;2023-08-21T21:36:28;9.23;;;6.82;;
76591;SDS011;65481;47.600;19.682;2023-08-21T21:41:29;9.90;;;6.35;;
76591;SDS011;65481;47.600;19.682;2023-08-21T21:46:29;12.00;;;7.00;;
76591;SDS011;65481;47.600;19.682;2023-08-21T21:51:30;9.82;;;6.15;;
76591;SDS011;65481;47.600;19.682;2023-08-21T21:56:30;8.10;;;6.15;;
76591;SDS011;65481;47.600;19.682;2023-08-21T22:01:31;9.60;;;6.70;;
76591;SDS011;65481;47.600;19.682;2023-08-21T22:06:31;8.33;;;6.37;;
76591;SDS011;65481;47.600;19.682;2023-08-21T22:11:32;9.60;;;6.07;;
76591;SDS011;65481;47.600;19.682;2023-08-21T22:16:32;9.13;;;6.40;;
76591;SDS011;65481;47.600;19.682;2023-08-21T22:21:33;8.25;;;6.20;;
76591;SDS011;65481;47.600;19.682;2023-08-21T22:26:33;10.07;;;6.32;;
76591;SDS011;65481;47.600;19.682;2023-08-21T22:31:34;10.40;;;6.47;;
76591;SDS011;65481;47.600;19.682;2023-08-21T22:36:34;9.18;;;6.70;;
76591;SDS011;65481;47.600;19.682;2023-08-21T22:41:34;10.05;;;6.82;;
76591;SDS011;65481;47.600;19.682;2023-08-21T22:46:35;9.40;;;6.22;;
76591;SDS011;65481;47.600;19.682;2023-08-21T22:51:37;9.70;;;6.55;;
76591;SDS011;65481;47.600;19.682;2023-08-21T22:56:37;9.52;;;6.50;;
76591;SDS011;65481;47.600;19.682;2023-08-21T23:01:38;9.40;;;6.30;;
76591;SDS011;65481;47.600;19.682;2023-08-21T23:06:38;10.40;;;6.77;;
76591;SDS011;65481;47.600;19.682;2023-08-21T23:11:39;10.73;;;7.00;;
76591;SDS011;65481;47.600;19.682;2023-08-21T23:16:39;9.65;;;6.97;;
76591;SDS011;65481;47.600;19.682;2023-08-21T23:21:40;10.85;;;7.03;;
76591;SDS011;65481;47.600;19.682;2023-08-21T23:26:41;12.55;;;7.68;;
76591;SDS011;65481;47.600;19.682;2023-08-21T23:31:41;9.23;;;6.40;;
76591;SDS011;65481;47.600;19.682;2023-08-21T23:36:42;8.98;;;6.53;;
76591;SDS011;65481;47.600;19.682;2023-08-21T23:41:44;10.10;;;6.57;;
76591;SDS011;65481;47.600;19.682;2023-08-21T23:46:44;10.70;;;7.05;;
76591;SDS011;65481;47.600;19.682;2023-08-21T23:51:45;9.85;;;6.78;;
76591;SDS011;65481;47.600;19.682;2023-08-21T23:56:45;9.35;;;7.05;;
